CheckWX is a tool to help pilots better visualize weather data.  It is not intended as a substitute for an official pre-flight weather briefing.

05:20:39 UTC

KCON METAR
Concord Municipal Airport
Concord, New Hampshire, USA
Current

30 mins ago

KCON 200451Z AUTO 00000KT 10SM CLR M12/M19 A3053 RMK AO2 SLP347 T11171189 410331133
Observed
Feb-20 @ 04:51 UTC
Visibility
16,093 meters
Flight Rules
VFR
Cloud Levels
  • Clear skies
Temperature
-12°C / 10°F
Dewpoint
-19°C / -2°F
Humidity
56%
Altimeter
30.53" Hg
Pressure
1034.7 hPa
Previous

1 hour ago

KCON 200351Z AUTO 29005KT 10SM CLR M10/M19 A3053 RMK AO2 SLP344 T11001189
Observed
Feb-20 @ 03:51 UTC
Wind
  • 290° at 5 KTS
Visibility
16,093 meters
Flight Rules
VFR
Cloud Levels
  • Clear skies
Temperature
-10°C / 14°F
Dewpoint
-19°C / -2°F
Humidity
48%
Altimeter
30.53" Hg
Pressure
1034.4 hPa
Previous

2 hours ago

KCON 200251Z AUTO 34006KT 10SM CLR M09/M19 A3053 RMK AO2 SLP345 T10891194 51012
Observed
Feb-20 @ 02:51 UTC
Wind
  • 340° at 6 KTS
Visibility
16,093 meters
Flight Rules
VFR
Cloud Levels
  • Clear skies
Temperature
-9°C / 16°F
Dewpoint
-19°C / -2°F
Humidity
45%
Altimeter
30.53" Hg
Pressure
1034.5 hPa